Championnat Départemental Avenirs Jeunes

Départementale

SAINT-LOUIS

Le Dimanche 28 Avril 2019

Bassin de 25m

50 Dos Dames

Séries

Nom Année Club Pays Temps Points Niv.
1 GUIMBAUD Nora 2006 DAUPHINS DE ST-LOUIS FRA 0:33:65 990
2 DESCHAMPS Theoline 2007 MULHOUSE ON FRA 0:34:53 945
3 YALCIN Selin 2006 DAUPHINS DE ST-LOUIS FRA 0:35:50 897
4 HAUSSER Selena 2007 THANN OLYMPIC N FRA 0:36:18 864
5 BIANCHI Manon 2006 MULHOUSE ON FRA 0:36:56 846
6 AVENEL Margot 2008 DAUPHINS DE ST-LOUIS FRA 0:37:37 807
7 WERLEN Maeva 2006 DAUPHINS DE ST-LOUIS FRA 0:37:38 807
8 KLINK Manon 2008 DAUPHINS DE ST-LOUIS FRA 0:38:60 751
9 GROUBET Ambre 2006 SR CERNAY FRA 0:41:38 631
10 DUREAULT Chloe 2008 DAUPHINS DE ST-LOUIS FRA 0:41:78 615
11 BALDEWECK Romane 2008 SR COLMAR FRA 0:41:91 610
12 SIRAUD Laura 2006 MULHOUSE ON FRA 0:42:68 579
13 BATT Morgane 2007 DAUPHINS DE ST-LOUIS FRA 0:43:19 559
14 MAC DOUGALL Joanna 2009 SR COLMAR FRA 0:43:95 530
15 DICK Maeva 2008 A.N.S D'ILLFURTH FRA 0:44:07 525
16 MASSON Cassie 2010 0:44:11 524
17 BOUDET-BROBECKER Iphigenie 2008 DAUPHINS DE ST-LOUIS FRA 0:44:22 520
18 BAUBY Louise 2008 SR COLMAR FRA 0:44:28 517
19 GUTFREUND Maureen 2008 THANN OLYMPIC N FRA 0:45:72 465
20 GUY Chloe 2008 SR COLMAR FRA 0:46:03 454
21 MALYGINA Sopfia 2009 MULHOUSE ON FRA 0:46:09 452
22 SELLES Lisa 2008 DAUPHINS DE ST-LOUIS FRA 0:46:53 437
23 CHEVRIER Emma 2009 A.N.S D'ILLFURTH FRA 0:46:77 429
24 SCHUBETZER Emma 2009 A.N.S D'ILLFURTH FRA 0:47:28 411
25 SERRATORE Iyomi 2008 DAUPHINS DE ST-LOUIS FRA 0:47:79 395
26 SALLIT Lena 2009 DAUPHINS DE ST-LOUIS FRA 0:48:41 375
27 PENIN Leonie 2009 THANN OLYMPIC N FRA 0:48:56 370
28 NASS Capucine 2009 A.N.S D'ILLFURTH FRA 0:49:13 352
29 STUDER-VARILLON Thaïs 2009 CLUB NAUTIQUE DE LA DOLLER FRA 0:50:63 307
30 NGUYEN Morgane 2009 DAUPHINS DE ST-LOUIS FRA 0:50:66 307
31 MULLER Enola 2010 0:50:80 303
32 ENON Mathilde 2009 THANN OLYMPIC N FRA 0:50:96 298
33 DARDENNE Cloé 2009 CLUB NAUTIQUE DE LA DOLLER FRA 0:51:18 292
34 BRüCK Josephine 2009 DAUPHINS DE ST-LOUIS FRA 0:51:23 290
35 BARADEL Manon 2010 KAYSERSBERG NATATION FRA 0:51:75 276
36 DECAUDIN Eva 2008 DAUPHINS DE ST-LOUIS FRA 0:51:96 270
37 MARTINEZ Iliana 2010 C.N DU FLORIVAL FRA 0:52:09 267
38 DUBOIS Lilou 2009 0:53:16 239
39 REY Eileen 2010 MULHOUSE ON FRA 0:53:31 235
40 ROOST Amelie 2010 MULHOUSE ON FRA 0:54:19 214
41 STUDER Clémence 2009 THANN OLYMPIC N FRA 0:55:22 190
42 HUG Chloé 2010 0:55:56 182
43 WIESER Lena 2009 DAUPHINS DE ST-LOUIS FRA 0:55:72 178
44 FAGHNNA Fayrouz 2009 SR COLMAR FRA 0:55:78 177
45 BRUNNER Zoé 2010 0:55:81 177
46 ECKERLEN Aurore 2010 0:55:93 174
47 SCHLICKLIN Ava 2009 A.N.S D'ILLFURTH FRA 0:56:08 171
48 RETOURNARD Marie 2009 SR COLMAR FRA 0:57:12 149
49 SIMON Pauline 2010 C.N DU FLORIVAL FRA 0:58:71 119
50 NGUYEN Maelle 2010 MULHOUSE ON FRA 0:59:40 107
51 GANGLER Alwena 2010 SR CERNAY FRA 1:00:10 95
52 DELONGVERT Apolline 2009 C.N DU FLORIVAL FRA - Disq.
53 RENTZ-ESPOSITO Emma 2010 KAYSERSBERG NATATION FRA - Disq.
54 RIMELIN Anna 2010 MULHOUSE ON FRA - Disq.
55 BOULCOURT Lisa 2010 DAUPHINS DE ST-LOUIS FRA - Disq.
56 SOLDERMANN Maeva 2008 DAUPHINS DE ST-LOUIS FRA - Disq.
57 MONHEIT Keren 2008 SR COLMAR FRA - Disq.